Time;durP1;ratioP1;P1;durP2;ratioP2;P2;SDS_P1;SDS_P2;PMS_P1;PMS_P2;Temp;Humidity;BMP_temperature;BMP_pressure;BME280_temperature;BME280_humidity;BME280_pressure;Samples;Min_cycle;Max_cycle;Signal;HPM_P1;HPM_P2
2023/03/29 00:01:01;;;;;;;;;;;;;;;15.50;50.23;101730.34;2038696;29;19922;-59
2023/03/29 00:02:03;;;;;;;;;;;;;;;15.50;50.23;101733.06;2027893;29;19939;-57
2023/03/29 00:03:05;;;;;;;;;;;;;;;15.51;50.28;101736.56;2026814;29;20370;-59
2023/03/29 00:04:09;;;;;;;;;;;;;;;15.50;50.43;101732.25;2031246;29;19974;-58
2023/03/29 00:05:12;;;;;;;;;;;;;;;15.51;50.36;101733.84;2034910;29;19930;-56
2023/03/29 00:06:21;;;;;;;;;;;;;;;15.51;50.43;101742.00;2025828;29;20547;-63
2023/03/29 00:07:24;;;;;;;;;;;;;;;15.51;50.27;101733.84;2026476;29;20393;-58
2023/03/29 00:08:28;;;;;;;;;;;;;;;15.50;50.53;101735.78;2026650;29;20018;-58
2023/03/29 00:09:31;;;;;;;;;;;;;;;15.51;50.42;101742.00;2025964;29;19923;-59
2023/03/29 00:10:34;;;;;;;;;;;;;;;15.51;50.38;101731.13;2027967;29;19982;-58
2023/03/29 00:11:38;;;;;;;;;;;;;;;15.50;50.31;101735.78;2032382;29;19930;-58
2023/03/29 00:12:41;;;;;;;;;;;;;;;15.50;50.24;101733.06;2026656;29;19931;-57
2023/03/29 00:13:43;;;;;;;;;;;;;;;15.50;50.47;101724.91;2028533;29;19932;-57
2023/03/29 00:14:45;;;;;;;;;;;;;;;15.50;50.34;101727.63;2030586;29;20400;-58
2023/03/29 00:15:47;;;;;;;;;;;;;;;15.49;50.42;101736.91;2024934;29;20590;-58
2023/03/29 00:16:50;;;;;;;;;;;;;;;15.50;50.28;101724.91;2032114;29;19934;-58
2023/03/29 00:17:52;;;;;;;;;;;;;;;15.49;50.34;101725.25;2032733;29;20014;-59
2023/03/29 00:18:54;;;;;;;;;;;;;;;15.50;50.26;101726.81;2033293;29;20451;-59
2023/03/29 00:19:56;;;;;;;;;;;;;;;15.50;50.47;101724.91;2034745;29;20372;-59
2023/03/29 00:20:59;;;;;;;;;;;;;;;15.49;50.26;101720.59;2028568;29;19947;-58
2023/03/29 00:22:01;;;;;;;;;;;;;;;15.49;50.37;101720.59;2025821;29;19930;-59
2023/03/29 00:23:04;;;;;;;;;;;;;;;15.49;50.36;101717.84;2025084;29;19932;-58
2023/03/29 00:24:06;;;;;;;;;;;;;;;15.49;50.50;101715.13;2026739;29;19927;-59
2023/03/29 00:25:09;;;;;;;;;;;;;;;15.49;50.00;101722.53;2039316;29;19926;-57
2023/03/29 00:26:11;;;;;;;;;;;;;;;15.48;50.27;101710.84;2033556;29;19926;-60
2023/03/29 00:27:15;;;;;;;;;;;;;;;15.49;50.25;101706.97;2027315;29;20030;-57
2023/03/29 00:28:17;;;;;;;;;;;;;;;15.49;50.44;101712.41;2025588;29;19974;-57
2023/03/29 00:29:19;;;;;;;;;;;;;;;15.47;50.39;101703.84;2035120;29;19926;-58
2023/03/29 00:30:21;;;;;;;;;;;;;;;15.48;50.53;101710.84;2024458;29;19924;-56
2023/03/29 00:31:23;;;;;;;;;;;;;;;15.48;50.35;101699.97;2038491;29;19927;-58
2023/03/29 00:32:26;;;;;;;;;;;;;;;15.49;50.30;101712.41;2033590;29;19930;-59
2023/03/29 00:33:28;;;;;;;;;;;;;;;15.49;50.25;101711.66;2032940;29;19927;-58
2023/03/29 00:34:30;;;;;;;;;;;;;;;15.49;50.39;101706.19;2034082;29;19923;-59
2023/03/29 00:35:33;;;;;;;;;;;;;;;15.48;50.28;101705.41;2026445;29;19951;-58
2023/03/29 00:36:34;;;;;;;;;;;;;;;15.49;50.38;101706.97;2025290;29;19923;-58
2023/03/29 00:37:38;;;;;;;;;;;;;;;15.49;50.40;101706.19;2024700;29;20274;-58
2023/03/29 00:38:41;;;;;;;;;;;;;;;15.49;50.36;101706.19;2026243;29;19933;-58
2023/03/29 00:39:43;;;;;;;;;;;;;;;15.48;50.34;101697.25;2031550;29;19982;-57
2023/03/29 00:40:46;;;;;;;;;;;;;;;15.48;50.30;101696.44;2034498;29;19965;-58
2023/03/29 00:41:49;;;;;;;;;;;;;;;15.48;50.48;101699.97;2027151;29;19999;-58
2023/03/29 00:42:55;;;;;;;;;;;;;;;15.48;50.35;101689.06;2030586;29;19923;-59
2023/03/29 00:43:57;;;;;;;;;;;;;;;15.49;50.38;101698.81;2027705;29;19934;-59
2023/03/29 00:45:05;;;;;;;;;;;;;;;15.49;50.45;101693.38;2027370;29;20065;-56
2023/03/29 00:46:07;;;;;;;;;;;;;;;15.48;50.39;101691.78;2032317;29;19927;-56
2023/03/29 00:47:10;;;;;;;;;;;;;;;15.48;50.36;101689.06;2030715;29;19931;-57
2023/03/29 00:48:15;;;;;;;;;;;;;;;15.49;50.14;101687.16;2020569;29;19932;-58
2023/03/29 00:49:17;;;;;;;;;;;;;;;15.48;50.28;101680.09;2020448;29;19936;-59
2023/03/29 00:50:24;;;;;;;;;;;;;;;15.48;50.44;101678.19;2030050;29;20290;-58
2023/03/29 00:51:29;;;;;;;;;;;;;;;15.48;50.33;101680.09;2024691;29;20017;-59
2023/03/29 00:52:33;;;;;;;;;;;;;;;15.49;50.43;101685.19;2024760;29;19931;-59
2023/03/29 00:53:37;;;;;;;;;;;;;;;15.48;50.37;101680.91;2028145;29;19934;-59
2023/03/29 00:54:42;;;;;;;;;;;;;;;15.48;50.47;101672.75;2027713;29;20009;-57
2023/03/29 00:55:47;;;;;;;;;;;;;;;15.48;50.38;101677.38;2035192;29;20409;-56
2023/03/29 00:56:50;;;;;;;;;;;;;;;15.47;50.42;101676.63;2028052;29;20022;-57
2023/03/29 00:57:54;;;;;;;;;;;;;;;15.47;50.36;101665.72;2031316;29;19927;-58
2023/03/29 00:58:59;;;;;;;;;;;;;;;15.48;50.26;101667.31;2027451;29;20277;-59
2023/03/29 01:00:03;;;;;;;;;;;;;;;15.49;50.26;101674.31;2026005;29;20003;-59
2023/03/29 01:01:09;;;;;;;;;;;;;;;15.48;50.30;101672.75;2023943;29;20363;-59
2023/03/29 01:02:12;;;;;;;;;;;;;;;15.48;50.23;101669.22;2025870;29;19924;-59
2023/03/29 01:03:23;;;;;;;;;;;;;;;15.48;50.17;101670.03;2028492;29;19931;-58
2023/03/29 01:04:29;;;;;;;;;;;;;;;15.48;50.19;101677.38;2037451;29;19993;-57
2023/03/29 01:05:36;;;;;;;;;;;;;;;15.47;50.25;101668.44;2027964;29;19923;-58
2023/03/29 01:06:42;;;;;;;;;;;;;;;15.48;50.24;101669.22;2026272;29;19927;-58
2023/03/29 01:07:47;;;;;;;;;;;;;;;15.48;50.30;101667.31;2033905;29;20214;-57
2023/03/29 01:08:52;;;;;;;;;;;;;;;15.46;50.35;101669.56;2022602;29;20150;-58
2023/03/29 01:09:57;;;;;;;;;;;;;;;15.47;50.19;101665.72;2021377;29;19957;-57
2023/03/29 01:11:03;;;;;;;;;;;;;;;15.48;50.14;101666.50;2024545;29;19934;-58
2023/03/29 01:12:11;;;;;;;;;;;;;;;15.48;50.40;101663.78;2027655;29;19937;-59
2023/03/29 01:13:17;;;;;;;;;;;;;;;15.49;50.20;101657.22;2025539;29;19943;-55
2023/03/29 01:14:22;;;;;;;;;;;;;;;15.47;50.41;101657.56;2022341;29;19947;-58
2023/03/29 01:15:27;;;;;;;;;;;;;;;15.47;50.40;101651.31;2033687;29;20026;-55
2023/03/29 01:16:32;;;;;;;;;;;;;;;15.47;50.21;101643.97;2012620;29;20018;-54
2023/03/29 01:17:34;;;;;;;;;;;;;;;15.47;50.32;101651.31;2010239;29;19935;-52
2023/03/29 01:18:37;;;;;;;;;;;;;;;15.48;50.30;101644.72;2035071;29;19938;-54
2023/03/29 01:19:41;;;;;;;;;;;;;;;15.47;50.26;101643.97;2032333;29;19951;-53
2023/03/29 01:20:50;;;;;;;;;;;;;;;15.47;50.27;101646.69;2024701;29;19927;-54
2023/03/29 01:21:56;;;;;;;;;;;;;;;15.48;50.35;101645.53;2028744;29;19930;-52
2023/03/29 01:23:07;;;;;;;;;;;;;;;15.47;50.27;101643.97;2028499;29;19970;-52
2023/03/29 01:24:31;;;;;;;;;;;;;;;15.47;50.37;101641.25;2024533;29;19977;-53
2023/03/29 01:25:37;;;;;;;;;;;;;;;15.47;50.32;101638.53;2019042;29;19970;-53
2023/03/29 01:26:45;;;;;;;;;;;;;;;15.47;50.21;101641.25;2027074;29;19939;-54
2023/03/29 01:27:52;;;;;;;;;;;;;;;15.47;50.22;101637.72;2027909;29;19934;-54
2023/03/29 01:28:57;;;;;;;;;;;;;;;15.47;50.18;101635.00;2029539;29;19926;-52
2023/03/29 01:30:01;;;;;;;;;;;;;;;15.47;50.28;101638.53;2037206;29;20380;-53
2023/03/29 01:31:07;;;;;;;;;;;;;;;15.47;50.21;101643.97;2033295;29;19935;-53
2023/03/29 01:32:12;;;;;;;;;;;;;;;15.47;50.32;101641.25;2025723;29;20380;-53
2023/03/29 01:33:19;;;;;;;;;;;;;;;15.48;50.28;101634.63;2024159;29;19923;-54
2023/03/29 01:34:26;;;;;;;;;;;;;;;15.48;50.40;101633.84;2025764;29;20324;-54
2023/03/29 01:35:31;;;;;;;;;;;;;;;15.48;50.29;101634.63;2035705;29;19926;-53
2023/03/29 01:36:38;;;;;;;;;;;;;;;15.47;50.20;101641.25;2034578;29;20340;-54
2023/03/29 01:37:42;;;;;;;;;;;;;;;15.47;50.43;101635.00;2033287;29;20527;-53
2023/03/29 01:38:47;;;;;;;;;;;;;;;15.48;50.25;101639.28;2035683;29;20017;-54
2023/03/29 01:39:49;;;;;;;;;;;;;;;15.48;50.47;101640.09;2026899;29;19977;-53
2023/03/29 01:40:52;;;;;;;;;;;;;;;15.47;50.41;101633.06;2028822;29;19930;-54
2023/03/29 01:42:01;;;;;;;;;;;;;;;15.47;50.32;101630.34;2034812;29;19981;-53
2023/03/29 01:43:11;;;;;;;;;;;;;;;15.47;50.27;101632.28;2034163;29;19927;-56
2023/03/29 01:44:16;;;;;;;;;;;;;;;15.46;50.25;101626.03;2027872;29;20301;-53
2023/03/29 01:45:22;;;;;;;;;;;;;;;15.48;50.21;101623.75;2031388;29;20381;-54
2023/03/29 01:46:28;;;;;;;;;;;;;;;15.47;50.30;101624.91;2029787;29;19927;-53
2023/03/29 01:47:37;;;;;;;;;;;;;;;15.47;50.36;101627.63;2029240;29;19930;-54
2023/03/29 01:48:44;;;;;;;;;;;;;;;15.48;50.33;101622.97;2026732;29;19950;-54
2023/03/29 01:49:51;;;;;;;;;;;;;;;15.47;50.28;101627.63;2032859;29;20328;-54
2023/03/29 01:50:54;;;;;;;;;;;;;;;15.47;50.41;101627.63;2031403;29;20010;-53
2023/03/29 01:52:00;;;;;;;;;;;;;;;15.47;50.16;101622.19;2027168;29;19993;-54
2023/03/29 01:53:05;;;;;;;;;;;;;;;15.47;50.42;101622.19;2027983;29;20378;-59
2023/03/29 01:54:12;;;;;;;;;;;;;;;15.47;50.27;101627.63;2020475;29;20329;-57
2023/03/29 01:55:19;;;;;;;;;;;;;;;15.47;50.21;101616.75;2024461;29;20049;-58
2023/03/29 01:56:24;;;;;;;;;;;;;;;15.47;50.32;101615.94;2031213;29;19979;-58
2023/03/29 01:57:27;;;;;;;;;;;;;;;15.47;50.22;101619.47;2028066;29;19931;-59
2023/03/29 01:58:33;;;;;;;;;;;;;;;15.47;50.27;101616.75;2035838;29;19927;-59
2023/03/29 01:59:37;;;;;;;;;;;;;;;15.48;50.37;101620.25;2029596;29;19927;-59
2023/03/29 02:00:41;;;;;;;;;;;;;;;15.48;50.44;101620.25;2028000;29;20433;-58
2023/03/29 02:01:47;;;;;;;;;;;;;;;15.47;50.30;101611.31;2031691;29;19931;-58
2023/03/29 02:02:51;;;;;;;;;;;;;;;15.47;50.32;101610.50;2031755;29;19931;-58
2023/03/29 02:03:55;;;;;;;;;;;;;;;15.47;50.46;101605.88;2033192;29;20401;-58
2023/03/29 02:04:59;;;;;;;;;;;;;;;15.48;50.34;101612.88;2026846;29;20405;-57
2023/03/29 02:06:01;;;;;;;;;;;;;;;15.47;50.39;101605.88;2027573;29;20416;-59
2023/03/29 02:07:07;;;;;;;;;;;;;;;15.47;50.35;101608.59;2026070;29;19973;-58
2023/03/29 02:08:11;;;;;;;;;;;;;;;15.48;50.33;101601.97;2017617;29;19927;-63
2023/03/29 02:09:14;;;;;;;;;;;;;;;15.48;50.26;101601.19;2024094;29;20433;-58
2023/03/29 02:10:17;;;;;;;;;;;;;;;15.47;50.37;101594.97;2028958;29;20082;-59
2023/03/29 02:11:20;;;;;;;;;;;;;;;15.48;50.20;101598.47;2034881;29;19926;-56
2023/03/29 02:12:22;;;;;;;;;;;;;;;15.47;50.27;101592.25;2036148;29;19926;-56
2023/03/29 02:13:26;;;;;;;;;;;;;;;15.48;50.28;101593.81;2036926;29;20281;-54
2023/03/29 02:14:29;;;;;;;;;;;;;;;15.48;50.18;101595.75;2033741;29;19994;-58
2023/03/29 02:15:32;;;;;;;;;;;;;;;15.47;50.46;101589.53;2027566;29;20426;-53
2023/03/29 02:16:34;;;;;;;;;;;;;;;15.47;50.32;101589.53;2028488;29;19934;-53
2023/03/29 02:17:37;;;;;;;;;;;;;;;15.48;50.38;101587.56;2027354;29;19971;-54
2023/03/29 02:18:40;;;;;;;;;;;;;;;15.47;50.28;101589.53;2033488;29;19927;-54
2023/03/29 02:19:44;;;;;;;;;;;;;;;15.47;50.17;101589.53;2023283;29;20362;-53
2023/03/29 02:20:48;;;;;;;;;;;;;;;15.47;50.37;101583.28;2021523;29;19979;-53
2023/03/29 02:21:55;;;;;;;;;;;;;;;15.48;50.28;101584.84;2029782;29;19923;-54
2023/03/29 02:23:01;;;;;;;;;;;;;;;15.48;50.40;101580.22;2030505;29;19931;-53
2023/03/29 02:24:05;;;;;;;;;;;;;;;15.47;50.32;101575.91;2032533;29;19927;-55
2023/03/29 02:25:09;;;;;;;;;;;;;;;15.47;50.07;101564.25;2017222;29;20318;-54
2023/03/29 02:26:14;;;;;;;;;;;;;;;15.47;50.26;101573.19;2022975;29;20403;-51
2023/03/29 02:27:15;;;;;;;;;;;;;;;15.47;50.35;101567.75;2028889;29;20400;-54
2023/03/29 02:28:19;;;;;;;;;;;;;;;15.48;50.44;101565.81;2033141;29;19937;-54
2023/03/29 02:29:21;;;;;;;;;;;;;;;15.47;50.26;101575.91;2036014;29;20274;-54
2023/03/29 02:30:27;;;;;;;;;;;;;;;15.47;50.27;101558.78;2034089;29;19934;-54
2023/03/29 02:31:33;;;;;;;;;;;;;;;15.47;50.41;101562.31;2026935;29;19950;-54
2023/03/29 02:32:40;;;;;;;;;;;;;;;15.47;50.15;101562.31;2033227;29;19927;-54
2023/03/29 02:33:45;;;;;;;;;;;;;;;15.47;50.35;101558.78;2021169;29;19983;-53
2023/03/29 02:34:53;;;;;;;;;;;;;;;15.47;50.36;101562.31;2019203;29;20426;-53
2023/03/29 02:35:58;;;;;;;;;;;;;;;15.47;50.48;101556.88;2032222;29;20345;-53
2023/03/29 02:37:02;;;;;;;;;;;;;;;15.47;50.28;101565.03;2035698;29;19929;-58
2023/03/29 02:38:07;;;;;;;;;;;;;;;15.47;50.46;101556.06;2028937;29;19966;-55
2023/03/29 02:39:12;;;;;;;;;;;;;;;15.47;50.30;101562.31;2035243;29;20579;-52
2023/03/29 02:40:16;;;;;;;;;;;;;;;15.47;50.41;101556.06;2032041;29;19974;-54
2023/03/29 02:41:18;;;;;;;;;;;;;;;15.48;50.28;101563.09;2031304;29;19931;-62
2023/03/29 02:42:22;;;;;;;;;;;;;;;15.47;50.20;101556.88;2029315;29;19934;-54
2023/03/29 02:43:24;;;;;;;;;;;;;;;15.47;50.37;101556.88;2028893;29;20017;-52
2023/03/29 02:44:29;;;;;;;;;;;;;;;15.47;50.24;101556.88;2021815;29;20664;-54
2023/03/29 02:45:34;;;;;;;;;;;;;;;15.47;50.20;101559.59;2031331;29;20297;-53
2023/03/29 02:46:37;;;;;;;;;;;;;;;15.47;50.28;101556.88;2037991;29;19923;-54
2023/03/29 02:47:40;;;;;;;;;;;;;;;15.48;50.39;101560.38;2035898;29;20377;-52
2023/03/29 02:48:45;;;;;;;;;;;;;;;15.48;50.37;101553.00;2032056;29;20282;-53
2023/03/29 02:49:46;;;;;;;;;;;;;;;15.48;50.20;101553.00;2021517;29;20634;-54
2023/03/29 02:50:51;;;;;;;;;;;;;;;15.46;50.26;101552.56;2023528;29;19982;-54
2023/03/29 02:51:54;;;;;;;;;;;;;;;15.47;50.20;101554.16;2025827;29;19938;-53
2023/03/29 02:53:00;;;;;;;;;;;;;;;15.47;50.29;101556.06;2031587;29;20612;-51
2023/03/29 02:54:05;;;;;;;;;;;;;;;15.47;50.16;101548.72;2024002;29;19954;-53
2023/03/29 02:55:10;;;;;;;;;;;;;;;15.47;50.25;101546.00;2023812;29;21364;-54
2023/03/29 02:56:12;;;;;;;;;;;;;;;15.47;50.22;101546.00;2031754;29;19934;-55
2023/03/29 02:57:15;;;;;;;;;;;;;;;15.47;50.37;101545.19;2029636;29;19927;-53
2023/03/29 02:58:16;;;;;;;;;;;;;;;15.48;50.21;101549.47;2026829;29;20018;-53
2023/03/29 02:59:21;;;;;;;;;;;;;;;15.47;50.22;101546.00;2025053;29;20403;-54
2023/03/29 03:00:23;;;;;;;;;;;;;;;15.47;50.29;101546.00;2034249;29;19980;-54
2023/03/29 03:01:27;;;;;;;;;;;;;;;15.47;50.21;101551.44;2021968;29;19931;-54
2023/03/29 03:02:29;;;;;;;;;;;;;;;15.46;50.46;101538.94;2029209;29;19926;-54
2023/03/29 03:03:32;;;;;;;;;;;;;;;15.47;50.36;101546.00;2021577;29;20697;-53
2023/03/29 03:04:35;;;;;;;;;;;;;;;15.47;50.45;101539.75;2010580;29;19928;-55
2023/03/29 03:05:38;;;;;;;;;;;;;;;15.47;50.30;101542.47;2026215;29;20461;-55
2023/03/29 03:06:40;;;;;;;;;;;;;;;15.47;50.19;101540.53;2030833;29;20388;-54
2023/03/29 03:07:45;;;;;;;;;;;;;;;15.47;50.28;101539.75;2031436;29;20381;-54
2023/03/29 03:08:48;;;;;;;;;;;;;;;15.46;50.33;101536.22;2022261;29;19938;-55
2023/03/29 03:09:50;;;;;;;;;;;;;;;15.46;50.43;101530.78;2018291;29;19987;-54
2023/03/29 03:10:53;;;;;;;;;;;;;;;15.47;50.27;101537.81;2028370;29;19975;-55
2023/03/29 03:11:55;;;;;;;;;;;;;;;15.47;50.41;101532.38;2030311;29;19927;-56
2023/03/29 03:12:59;;;;;;;;;;;;;;;15.47;50.20;101535.09;2024311;29;20016;-54
2023/03/29 03:14:04;;;;;;;;;;;;;;;15.46;50.32;101530.78;2017457;29;20293;-53
2023/03/29 03:15:08;;;;;;;;;;;;;;;15.46;50.39;101533.50;2029654;29;19927;-57
2023/03/29 03:16:13;;;;;;;;;;;;;;;15.46;50.39;101522.63;2013387;29;19928;-59
2023/03/29 03:17:18;;;;;;;;;;;;;;;15.47;50.52;101528.88;2014303;29;19924;-59
2023/03/29 03:18:21;;;;;;;;;;;;;;;15.47;50.41;101521.50;2016579;29;20022;-59
2023/03/29 03:19:24;;;;;;;;;;;;;;;15.46;50.40;101517.19;2017866;29;20326;-58
2023/03/29 03:20:26;;;;;;;;;;;;;;;15.47;50.27;101524.22;2025861;29;20353;-59
2023/03/29 03:21:30;;;;;;;;;;;;;;;15.47;50.21;101524.22;2025656;29;19938;-57
2023/03/29 03:22:33;;;;;;;;;;;;;;;15.47;50.46;101523.41;2016306;29;20026;-57
2023/03/29 03:23:36;;;;;;;;;;;;;;;15.47;50.28;101512.53;2017318;29;20378;-59
2023/03/29 03:24:40;;;;;;;;;;;;;;;15.47;50.22;101517.97;2016887;29;19928;-58
2023/03/29 03:25:44;;;;;;;;;;;;;;;15.46;50.33;101522.63;2021122;29;19927;-57
2023/03/29 03:26:48;;;;;;;;;;;;;;;15.46;50.35;101517.19;2019625;29;19931;-58
2023/03/29 03:27:53;;;;;;;;;;;;;;;15.48;50.33;101514.09;2021873;29;19995;-55
2023/03/29 03:28:58;;;;;;;;;;;;;;;15.46;50.37;101514.47;2027438;29;19974;-58
2023/03/29 03:30:35;;;;;;;;;;;;;;;15.47;50.24;101509.81;2017618;29;19971;-59
2023/03/29 03:31:56;;;;;;;;;;;;;;;15.48;50.36;101511.38;2025494;29;19930;-59
2023/03/29 03:33:27;;;;;;;;;;;;;;;15.47;50.26;101509.81;2032974;29;19933;-59
2023/03/29 03:34:40;;;;;;;;;;;;;;;15.46;50.45;101511.72;2030407;29;19946;-59
2023/03/29 03:35:45;;;;;;;;;;;;;;;15.47;50.25;101517.97;2024561;29;20014;-58
2023/03/29 03:36:49;;;;;;;;;;;;;;;15.46;50.35;101506.28;2020242;29;19927;-58
2023/03/29 03:37:52;;;;;;;;;;;;;;;15.47;50.25;101512.53;2020447;29;20019;-59
2023/03/29 03:38:53;;;;;;;;;;;;;;;15.46;50.29;101511.72;2016351;29;19928;-58
2023/03/29 03:39:56;;;;;;;;;;;;;;;15.47;50.51;101509.81;2022200;29;21612;-59
2023/03/29 03:41:00;;;;;;;;;;;;;;;15.47;50.45;101515.25;2029341;29;19942;-58
2023/03/29 03:42:06;;;;;;;;;;;;;;;15.46;50.31;101511.72;2029419;29;19987;-58
2023/03/29 03:43:13;;;;;;;;;;;;;;;15.46;50.36;101511.72;2029335;29;19958;-58
2023/03/29 03:44:16;;;;;;;;;;;;;;;15.47;50.36;101507.09;2009243;29;19931;-59
2023/03/29 03:45:20;;;;;;;;;;;;;;;15.45;50.34;101499.28;2015233;29;20314;-59
2023/03/29 03:46:35;;;;;;;;;;;;;;;15.47;50.24;101501.66;2024844;29;19928;-57
2023/03/29 03:47:38;;;;;;;;;;;;;;;15.46;50.41;101498.13;2028929;29;19930;-57
2023/03/29 03:49:13;;;;;;;;;;;;;;;15.46;50.28;101498.13;2022073;29;19928;-59
2023/03/29 03:50:17;;;;;;;;;;;;;;;15.47;50.27;101504.38;2019632;29;19927;-58
2023/03/29 03:51:20;;;;;;;;;;;;;;;15.46;50.51;101489.97;2030585;29;19974;-58
2023/03/29 03:52:22;;;;;;;;;;;;;;;15.46;50.39;101489.19;2016532;29;20458;-58
2023/03/29 03:53:26;;;;;;;;;;;;;;;15.46;50.29;101495.41;2011655;29;20302;-58
2023/03/29 03:54:49;;;;;;;;;;;;;;;15.46;50.42;101497.38;2019505;29;19927;-59
2023/03/29 03:56:28;;;;;;;;;;;;;;;15.46;50.21;101492.69;2019181;29;20752;-59
2023/03/29 03:57:43;;;;;;;;;;;;;;;15.46;50.43;101495.41;2011660;29;19956;-58
2023/03/29 03:58:49;;;;;;;;;;;;;;;15.46;50.46;101495.41;2021367;29;20244;-56
2023/03/29 03:59:52;;;;;;;;;;;;;;;15.46;50.31;101489.97;2025882;29;20499;-58
2023/03/29 04:01:01;;;;;;;;;;;;;;;15.46;50.37;101489.97;2024275;29;19931;-59
2023/03/29 04:02:14;;;;;;;;;;;;;;;15.46;50.41;101495.41;2014577;29;20334;-58
2023/03/29 04:03:18;;;;;;;;;;;;;;;15.46;50.49;101489.97;2023606;29;20381;-59
2023/03/29 04:04:23;;;;;;;;;;;;;;;15.46;50.37;101497.38;2018516;29;19923;-58
2023/03/29 04:05:45;;;;;;;;;;;;;;;15.46;50.47;101495.41;2018971;29;19966;-57
2023/03/29 04:06:49;;;;;;;;;;;;;;;15.46;50.22;101489.97;2036032;29;19985;-58
2023/03/29 04:08:11;;;;;;;;;;;;;;;15.46;50.30;101487.25;2026740;29;19930;-57
2023/03/29 04:09:39;;;;;;;;;;;;;;;15.45;50.40;101488.41;1999126;29;20458;-59
2023/03/29 04:10:57;;;;;;;;;;;;;;;15.46;50.24;101484.53;2027729;29;19923;-58
2023/03/29 04:12:10;;;;;;;;;;;;;;;15.46;50.25;101478.31;2026324;29;20381;-58
2023/03/29 04:13:14;;;;;;;;;;;;;;;15.46;50.52;101478.31;2030353;29;20380;-58
2023/03/29 04:14:37;;;;;;;;;;;;;;;15.46;50.30;101484.53;2034687;29;19923;-59
2023/03/29 04:15:42;;;;;;;;;;;;;;;15.45;50.24;101472.06;2022931;29;19990;-55
2023/03/29 04:16:47;;;;;;;;;;;;;;;15.46;50.36;101473.63;2017101;29;20461;-56
2023/03/29 04:18:09;;;;;;;;;;;;;;;15.47;50.29;101469.00;2029726;29;19938;-54
2023/03/29 04:19:18;;;;;;;;;;;;;;;15.46;50.47;101473.63;2027594;29;20074;-53
2023/03/29 04:20:23;;;;;;;;;;;;;;;15.46;50.42;101467.44;2016687;29;19947;-52
2023/03/29 04:21:26;;;;;;;;;;;;;;;15.46;50.40;101476.34;2024264;29;20266;-53
2023/03/29 04:22:28;;;;;;;;;;;;;;;15.46;50.37;101475.59;2025088;29;19934;-55
2023/03/29 04:23:30;;;;;;;;;;;;;;;15.46;50.34;101464.72;2022806;29;20039;-53
2023/03/29 04:24:32;;;;;;;;;;;;;;;15.46;50.28;101464.72;2021529;29;19927;-54
2023/03/29 04:25:52;;;;;;;;;;;;;;;15.46;50.51;101467.44;2021650;29;19927;-54
2023/03/29 04:27:30;;;;;;;;;;;;;;;15.45;50.45;101457.66;2021404;29;19955;-54
2023/03/29 04:28:35;;;;;;;;;;;;;;;15.46;50.39;101468.19;2035442;29;19926;-55
2023/03/29 04:29:46;;;;;;;;;;;;;;;15.46;50.40;101468.19;2023935;29;19973;-54
2023/03/29 04:30:57;;;;;;;;;;;;;;;15.46;50.40;101468.19;2022810;29;20046;-55
2023/03/29 04:32:26;;;;;;;;;;;;;;;15.46;50.56;101465.47;2022376;29;19923;-54
2023/03/29 04:33:36;;;;;;;;;;;;;;;15.46;50.41;101464.72;2018808;29;20006;-54
2023/03/29 04:34:37;;;;;;;;;;;;;;;15.46;50.39;101462.75;2023920;29;20377;-55
2023/03/29 04:35:42;;;;;;;;;;;;;;;15.46;50.41;101462.75;2028946;29;20018;-54
2023/03/29 04:36:49;;;;;;;;;;;;;;;15.45;50.37;101461.19;2027592;29;20297;-54
2023/03/29 04:37:55;;;;;;;;;;;;;;;15.46;50.53;101462.75;2021095;29;20014;-53
2023/03/29 04:39:00;;;;;;;;;;;;;;;15.45;50.37;101458.47;2031543;29;20313;-54
2023/03/29 04:40:04;;;;;;;;;;;;;;;15.46;50.41;101459.25;2018634;29;19927;-54
2023/03/29 04:41:21;;;;;;;;;;;;;;;15.46;50.38;101461.97;2020522;29;19927;-53
2023/03/29 04:42:36;;;;;;;;;;;;;;;15.46;50.38;101451.88;2018178;29;19928;-53
2023/03/29 04:43:40;;;;;;;;;;;;;;;15.46;50.51;101445.66;2029770;29;19949;-52
2023/03/29 04:44:49;;;;;;;;;;;;;;;15.45;50.47;101447.59;2020170;29;20477;-52
2023/03/29 04:45:58;;;;;;;;;;;;;;;15.46;50.40;101445.66;2013445;29;20367;-53
2023/03/29 04:47:23;;;;;;;;;;;;;;;15.46;50.32;101459.25;2004881;29;20347;-55
2023/03/29 04:48:32;;;;;;;;;;;;;;;15.46;50.26;101462.75;2021249;29;19927;-52
2023/03/29 04:49:33;;;;;;;;;;;;;;;15.45;50.52;101461.19;2022458;29;20421;-54
2023/03/29 04:50:37;;;;;;;;;;;;;;;15.46;50.39;101451.88;2021825;29;19988;-54
2023/03/29 04:51:40;;;;;;;;;;;;;;;15.45;50.32;101447.59;2017237;29;19927;-54
2023/03/29 04:52:44;;;;;;;;;;;;;;;15.46;50.63;101456.53;2024194;29;19966;-54
2023/03/29 04:53:47;;;;;;;;;;;;;;;15.46;50.35;101451.88;2024790;29;19971;-53
2023/03/29 04:54:49;;;;;;;;;;;;;;;15.46;50.38;101456.53;2025486;29;19974;-54
2023/03/29 04:55:59;;;;;;;;;;;;;;;15.46;50.50;101461.97;2030936;29;20013;-54
2023/03/29 04:57:22;;;;;;;;;;;;;;;15.46;50.49;101456.53;2038011;29;20297;-54
2023/03/29 04:58:36;;;;;;;;;;;;;;;15.46;50.50;101445.66;2035714;29;19978;-54
2023/03/29 04:59:38;;;;;;;;;;;;;;;15.46;50.83;101451.09;2019450;29;19927;-53
2023/03/29 05:01:16;;;;;;;;;;;;;;;15.45;50.63;101455.75;1996231;29;19930;-55
2023/03/29 05:02:26;;;;;;;;;;;;;;;15.46;50.36;101457.31;1985137;29;20520;-56
2023/03/29 05:03:28;;;;;;;;;;;;;;;15.46;50.42;101456.53;1988188;29;20331;-54
2023/03/29 05:04:38;;;;;;;;;;;;;;;15.45;50.52;101460.38;2018158;29;19974;-54
2023/03/29 05:05:46;;;;;;;;;;;;;;;15.45;50.47;101455.75;2016337;29;19939;-53
2023/03/29 05:06:50;;;;;;;;;;;;;;;15.45;50.44;101463.91;2021687;29;19927;-53
2023/03/29 05:07:53;;;;;;;;;;;;;;;15.46;50.28;101461.97;2029396;29;20399;-54
2023/03/29 05:09:01;;;;;;;;;;;;;;;15.45;50.37;101458.47;2033273;29;19934;-54
2023/03/29 05:10:08;;;;;;;;;;;;;;;15.46;50.28;101451.09;2015058;29;19928;-54
2023/03/29 05:11:12;;;;;;;;;;;;;;;15.45;50.55;101455.75;2014459;29;20014;-54
2023/03/29 05:12:14;;;;;;;;;;;;;;;15.45;50.86;101461.19;2019861;29;19967;-54
2023/03/29 05:13:25;;;;;;;;;;;;;;;15.45;50.30;101461.19;2009160;29;20001;-54
2023/03/29 05:14:27;;;;;;;;;;;;;;;15.45;50.33;101450.31;2020087;29;19927;-53
2023/03/29 05:15:30;;;;;;;;;;;;;;;15.46;50.49;101456.53;2029528;29;20324;-53
2023/03/29 05:16:34;;;;;;;;;;;;;;;15.46;50.37;101446.41;2028415;29;19927;-54
2023/03/29 05:17:36;;;;;;;;;;;;;;;15.46;50.55;101446.41;2033748;29;19927;-54
2023/03/29 05:18:43;;;;;;;;;;;;;;;15.45;50.47;101444.84;2020896;29;19935;-53
2023/03/29 05:19:45;;;;;;;;;;;;;;;15.46;50.80;101448.38;2023025;29;20003;-53
2023/03/29 05:20:51;;;;;;;;;;;;;;;15.45;50.41;101450.31;2029184;29;19927;-53
2023/03/29 05:21:56;;;;;;;;;;;;;;;15.44;50.35;101454.19;2020570;29;19923;-53
2023/03/29 05:23:00;;;;;;;;;;;;;;;15.46;50.46;101456.53;2012182;29;19960;-54
2023/03/29 05:24:25;;;;;;;;;;;;;;;15.45;50.33;101461.19;2024252;29;19923;-54
2023/03/29 05:25:33;;;;;;;;;;;;;;;15.46;50.43;101459.25;2017986;29;19928;-54
2023/03/29 05:26:36;;;;;;;;;;;;;;;15.46;50.44;101461.97;2022373;29;19923;-55
2023/03/29 05:27:39;;;;;;;;;;;;;;;15.46;50.32;101467.44;2031966;29;19934;-53
2023/03/29 05:28:43;;;;;;;;;;;;;;;15.45;50.53;101466.63;2028118;29;19927;-54
2023/03/29 05:29:46;;;;;;;;;;;;;;;15.46;50.30;101462.75;2025635;29;19923;-55
2023/03/29 05:31:07;;;;;;;;;;;;;;;15.45;50.41;101444.06;2025248;29;19963;-52
2023/03/29 05:32:12;;;;;;;;;;;;;;;15.45;50.42;101444.84;2027759;29;20395;-55
2023/03/29 05:33:15;;;;;;;;;;;;;;;15.45;50.36;101444.84;2028437;29;20349;-53
2023/03/29 05:34:18;;;;;;;;;;;;;;;15.46;50.47;101448.38;2029904;29;20316;-53
2023/03/29 05:35:27;;;;;;;;;;;;;;;15.44;50.43;101448.75;2028344;29;19923;-55
2023/03/29 05:36:31;;;;;;;;;;;;;;;15.45;50.48;101450.31;2016016;29;19971;-54
2023/03/29 05:37:35;;;;;;;;;;;;;;;15.45;50.29;101463.91;2023054;29;20385;-55
2023/03/29 05:38:37;;;;;;;;;;;;;;;15.45;50.49;101466.63;2025411;29;19927;-52
2023/03/29 05:39:40;;;;;;;;;;;;;;;15.44;50.34;101465.06;2015118;29;19924;-54